IkaScore Players IkaScore Alliances






Support IkaScore

Please donate to
me@ikascore.com

using Skrill
Latvia Epsilon
Ikariam players: 50
AverageTotal
Kopējais punktu skaits: 23745961 1187298031
Celtnieki: 19670755 983537771
Celtniecības līmeņi: 2933 4391146
Zinātnieki: 841622 1259908452
Pētniecības līmenis: 290 434172
Ģenerāļi: 11922 17846995
Zelts: 35951493 1797574626
Uzbrukuma punkti: 3307 4950948
Aizsardzības punkti: 4864 7281936
Tirdzniecības statistika: 2973 4451229
Resursi: 14783292 739164599
ziedot: 422677 632748160
Score vulnerability: 172911 258848227
Gold vulnerability: 38074 56997455
Population: 17464 26143880
Donations to score: 350032 523998270

Digg! Delicious! IkaScore homepage
Players - Kopējais punktu skaits
  per page  Next page >>
Rank Ikariam player Alliance Score Type Score Updated
Support IkaScore

Please donate to    me@ikascore.com    using Skrill
1 Liesmu pavēlnieks Ezīcz EŽI Kopējais punktu skaits 97972338 19/04 13:44
2 Priekšnieks I-sHiNe EŽI Kopējais punktu skaits 95991193 19/04 13:44
3 FOX03 EŽI Kopējais punktu skaits 61092213 19/04 13:44
4 Admirālis Sipango EŽI Kopējais punktu skaits 59636325 19/04 13:44
5 Admirālis King Persejs ZXN Kopējais punktu skaits 55631542 19/04 13:44
6 Pirātu karalis pumba DESA Kopējais punktu skaits 54400691 19/04 13:44
7 Karaļa Mēdosa mantzinis Larry Laffer SOG Kopējais punktu skaits 51427288 19/04 13:44
8 Dievu dzērienu servētājs Lācīc EŽI Kopējais punktu skaits 50328145 19/04 13:44
9 Marmora magnāts Patrons K15R Kopējais punktu skaits 46945598 19/04 13:44
10 Kimk EŽI Kopējais punktu skaits 46115996 19/04 13:44
11 CIPO LAT Kopējais punktu skaits 42008284 19/04 13:44
12 Smalkās mākslas meistars Dalas EŽI Kopējais punktu skaits 41095267 19/04 13:44
13 Mākslinieks sleeping_awake EŽI Kopējais punktu skaits 39515487 19/04 13:44
14 Kristāla magnāts Tūrists NEZIN Kopējais punktu skaits 37680912 19/04 13:44
15 zzzz new Kopējais punktu skaits 36967688 19/04 13:44
16 Cricket EŽI Kopējais punktu skaits 36904798 19/04 13:44
17 Senais Ezis EŽI Kopējais punktu skaits 35986052 19/04 13:44
18 Laboratorijas žurka kasuks SPARS Kopējais punktu skaits 35931060 19/04 13:44
19 klibais2 LAT Kopējais punktu skaits 35311599 19/04 13:44
20 dragoo LAT Kopējais punktu skaits 32080704 19/04 13:44
21 Leģionārs 77 Kopējais punktu skaits 32031614 19/04 13:44
22 gt99 LAT Kopējais punktu skaits 31880291 19/04 13:44
23 Giekalitis LAT Kopējais punktu skaits 31538948 19/04 13:44
24 Heņa79 Kopējais punktu skaits 31113187 19/04 13:44
25 Kaislīgs kolekcionārs Silkra Kopējais punktu skaits 30922402 19/04 13:44
26 valdisss KF P Kopējais punktu skaits 30874795 19/04 13:44
27 gt99lv LAT Kopējais punktu skaits 30459972 19/04 13:44
28 Mākslinieks Al_Cohol SPARS Kopējais punktu skaits 30429426 19/04 13:44
29 ronda P-Z Kopējais punktu skaits 29745479 19/04 13:44
30 Vēstnieks MIL ZXN Kopējais punktu skaits 29664031 19/04 13:44
31 Zelimhans PO- Kopējais punktu skaits 29021724 19/04 13:44
32 nike air 13 Kopējais punktu skaits 28957710 19/04 13:44
33 Mākslinieks KVL Mc Murss Kopējais punktu skaits 28266668 19/04 13:44
34 Predator55 NEZIN Kopējais punktu skaits 27709365 19/04 13:44
35 Vells KidLV Kopējais punktu skaits 27606546 19/04 13:44
36 Cooper NEZIN Kopējais punktu skaits 27238517 19/04 13:44
37 bankieriic LAT Kopējais punktu skaits 27073888 19/04 13:44
38 Apollons sezams ZXN Kopējais punktu skaits 26914572 19/04 13:44
39 Apple Kopējais punktu skaits 26610887 19/04 13:44
40 atonkuls Kopējais punktu skaits 26565108 19/04 13:44
41 Chupacabra P-Z Kopējais punktu skaits 26528434 19/04 13:44
42 Marmora magnāts Lord Uhtred K15R Kopējais punktu skaits 26515957 19/04 13:44
43 Orkla KidLV Kopējais punktu skaits 26105864 19/04 13:44
44 Maratonists Xander SOG Kopējais punktu skaits 26091878 19/04 13:44
45 U-Boat EŽI Kopējais punktu skaits 25996288 19/04 13:44
46 Kristāla magnāts romina LAT Kopējais punktu skaits 25938722 19/04 13:44
47 Sīzifs digitteks NEZIN Kopējais punktu skaits 25619499 19/04 13:44
48 Norcis Kopējais punktu skaits 25617833 19/04 13:44
49 Diversants P-Z Kopējais punktu skaits 25608102 19/04 13:44
50 Imperators Runcis Killroy Kopējais punktu skaits 25046120 19/04 13:44
51 deepangel Kopējais punktu skaits 24713622 19/04 13:44
52 Herkuless Lemekkins ZXN Kopējais punktu skaits 24685400 19/04 13:44
53 nike air P-Z Kopējais punktu skaits 24231120 19/04 13:44
54 kristzz LAT Kopējais punktu skaits 24014149 19/04 13:44
55 internal ZXN Kopējais punktu skaits 23858782 19/04 13:44
56 naudigais KidLV Kopējais punktu skaits 23847863 19/04 13:44
57 Detektīvs Čaks Noriss ZXN Kopējais punktu skaits 23842090 19/04 13:44
58 Jaffa EŽI Kopējais punktu skaits 23814191 19/04 13:44
59 Runcis Draxo K15R Kopējais punktu skaits 23606313 19/04 13:44
60 Jurka Kopējais punktu skaits 23285639 19/04 13:44
61 rondaa LAT Kopējais punktu skaits 23201809 19/04 13:44
62 Imperators Trencis DESA Kopējais punktu skaits 23038972 19/04 13:44
63 dragn P-Z Kopējais punktu skaits 22673619 19/04 13:44
64 Inesus LAT Kopējais punktu skaits 22470139 19/04 13:44
65 123 123e Kopējais punktu skaits 22217009 19/04 13:44
66 Kaupo P-Z Kopējais punktu skaits 22195427 19/04 13:44
67 Gubernators Runcis TulikDew ZXN Kopējais punktu skaits 21759297 19/04 13:44
68 Melnā tirgus karalis LiFe NEZIN Kopējais punktu skaits 21695037 19/04 13:44
69 -Edgars- RedS Kopējais punktu skaits 21514393 19/04 13:44
70 SMārtiņš LVS- Kopējais punktu skaits 21458754 19/04 13:44
71 Jasons NEZIN Kopējais punktu skaits 21067177 19/04 13:44
72 Apollons -RīdžA- NEZIN Kopējais punktu skaits 21019077 19/04 13:44
73 Rols PO- Kopējais punktu skaits 20937579 19/04 13:44
74 čingishans_D P-Z Kopējais punktu skaits 20903974 19/04 13:44
75 zāļuks LAT Kopējais punktu skaits 20834943 19/04 13:44
76 janisz Kopējais punktu skaits 20798105 19/04 13:44
77 Dievu dzērienu servētājs jaudigais NEZIN Kopējais punktu skaits 20531429 19/04 13:44
78 Čingishans KidLV Kopējais punktu skaits 20427279 19/04 13:44
79 Pirātu kapteinis IVARS97 Z P Kopējais punktu skaits 20426182 19/04 13:44
80 Ziloņkaula torņa sargs wilsis EŽI Kopējais punktu skaits 20252179 19/04 13:44
81 Čingishans_G Kopējais punktu skaits 20132112 19/04 13:44
82 Mākslinieks fuks LAT Kopējais punktu skaits 19817105 19/04 13:44
83 chikago ZXN Kopējais punktu skaits 19790563 19/04 13:44
84 Mākslinieks Her0 NEZIN Kopējais punktu skaits 19784079 19/04 13:44
85 Legacy -FX- Kopējais punktu skaits 19310724 19/04 13:44
86 Klaids PO- Kopējais punktu skaits 19300868 19/04 13:44
87 Runcis Paradox K15R Kopējais punktu skaits 19264979 19/04 13:44
88 ZARNASKUNGS -AHA- Kopējais punktu skaits 19196506 19/04 13:44
89 Marmora magnāts drink_it RedS Kopējais punktu skaits 19185147 19/04 13:44
90 Gubernators Amun-Ra LAT Kopējais punktu skaits 19152251 19/04 13:44
91 Patrons exit Kat Kopējais punktu skaits 18894570 19/04 13:44
92 Podi LAT Kopējais punktu skaits 18827573 19/04 13:44
93 Čingishans_B KidLV Kopējais punktu skaits 18792844 19/04 13:44
94 Karaļa Mēdosa mantzinis Lucifer ZXN Kopējais punktu skaits 18745690 19/04 13:44
95 kukers123 LAT Kopējais punktu skaits 18460212 19/04 13:44
96 kukers P-Z Kopējais punktu skaits 18304475 19/04 13:44
97 Ozolss LAT Kopējais punktu skaits 18213722 19/04 13:44
98 Vēstnieks Tihomir P-Z Kopējais punktu skaits 18207023 19/04 13:44
99 agucis191 LVS- Kopējais punktu skaits 18008650 19/04 13:44
100 Punktu mednieks Vannis LAT Kopējais punktu skaits 17715910 19/04 13:44
  per page  Next page >>

Copyright © 2010 IkaScore.com All Rights Reserved | Disclaimer